createdAt,value
2023-04-09T00:02:19.821Z,6.21
2023-04-09T00:05:06.437Z,6.08
2023-04-09T00:07:51.826Z,6.07
2023-04-09T00:10:37.080Z,6.04
2023-04-09T00:13:35.588Z,5.99
2023-04-09T00:16:23.663Z,6.07
2023-04-09T00:19:08.681Z,6.05
2023-04-09T00:21:53.866Z,6.05
2023-04-09T00:24:38.836Z,6.01
2023-04-09T00:27:23.591Z,6.13
2023-04-09T00:30:09.183Z,6.12
2023-04-09T00:32:54.287Z,6.07
2023-04-09T00:35:39.792Z,6.03
2023-04-09T00:38:25.292Z,6.06
2023-04-09T00:41:10.559Z,6.07
2023-04-09T00:43:58.887Z,6.07
2023-04-09T00:46:43.694Z,6.01
2023-04-09T00:49:29.061Z,6.01
2023-04-09T00:52:14.236Z,6.10
2023-04-09T00:55:00.726Z,6.10
2023-04-09T00:57:45.671Z,6.08
2023-04-09T01:00:31.076Z,5.97
2023-04-09T01:03:16.582Z,6.03
2023-04-09T01:06:35.173Z,6.02
2023-04-09T01:09:37.239Z,5.96
2023-04-09T01:12:41.294Z,5.97
2023-04-09T01:15:29.740Z,5.95
2023-04-09T01:18:17.782Z,5.94
2023-04-09T01:21:07.188Z,5.94
2023-04-09T01:24:11.100Z,5.96
2023-04-09T01:27:06.671Z,5.99
2023-04-09T01:29:53.442Z,5.96
2023-04-09T01:32:39.282Z,5.97
2023-04-09T01:35:26.086Z,5.94
2023-04-09T01:38:13.758Z,5.88
2023-04-09T01:41:00.818Z,5.91
2023-04-09T01:43:46.763Z,5.88
2023-04-09T01:46:33.485Z,5.89
2023-04-09T01:49:18.814Z,5.89
2023-04-09T01:52:04.383Z,5.87
2023-04-09T01:54:49.348Z,5.79
2023-04-09T01:57:34.169Z,5.78
2023-04-09T02:00:19.508Z,5.73
2023-04-09T02:03:10.784Z,5.74
2023-04-09T02:06:01.146Z,5.74
2023-04-09T02:08:47.760Z,5.75
2023-04-09T02:11:34.164Z,5.70
2023-04-09T02:14:21.218Z,5.69
2023-04-09T02:17:13.530Z,5.68
2023-04-09T02:19:58.825Z,5.68
2023-04-09T02:22:43.993Z,5.72
2023-04-09T02:25:29.304Z,5.77
2023-04-09T02:28:14.508Z,5.73
2023-04-09T02:30:59.883Z,5.82
2023-04-09T02:33:44.867Z,5.82
2023-04-09T02:36:31.113Z,5.84
2023-04-09T02:39:16.641Z,5.77
2023-04-09T02:42:02.211Z,5.80
2023-04-09T02:44:47.016Z,5.78
2023-04-09T02:47:31.986Z,5.76
2023-04-09T02:50:17.530Z,5.75
2023-04-09T02:53:02.814Z,5.76
2023-04-09T02:55:48.156Z,5.75
2023-04-09T02:58:33.476Z,5.72
2023-04-09T03:01:18.556Z,5.75
2023-04-09T03:04:04.246Z,5.71
2023-04-09T03:06:51.632Z,5.66
2023-04-09T03:09:36.691Z,5.55
2023-04-09T03:12:21.958Z,5.62
2023-04-09T03:15:07.390Z,5.64
2023-04-09T03:17:52.632Z,5.55
2023-04-09T03:20:39.527Z,5.63
2023-04-09T03:23:24.745Z,5.67
2023-04-09T03:26:09.788Z,5.63
2023-04-09T03:28:54.944Z,5.68
2023-04-09T03:31:40.341Z,5.70
2023-04-09T03:34:25.381Z,5.70
2023-04-09T03:37:10.336Z,5.69
2023-04-09T03:39:55.212Z,5.68
2023-04-09T03:42:42.546Z,5.69
2023-04-09T03:45:29.256Z,5.70
2023-04-09T03:48:14.460Z,5.72
2023-04-09T03:50:59.406Z,5.71
2023-04-09T03:53:44.779Z,5.57
2023-04-09T03:56:29.748Z,5.64
2023-04-09T03:59:14.659Z,5.70
2023-04-09T04:01:59.590Z,5.70
2023-04-09T04:04:45.830Z,5.70
2023-04-09T04:07:32.324Z,5.72
2023-04-09T04:10:17.363Z,5.75
2023-04-09T04:13:02.912Z,5.74
2023-04-09T04:15:48.197Z,5.77
2023-04-09T04:18:33.390Z,5.80
2023-04-09T04:21:18.260Z,5.85
2023-04-09T04:24:03.269Z,5.87
2023-04-09T04:26:48.562Z,5.83
2023-04-09T04:29:33.604Z,5.89
2023-04-09T04:32:19.129Z,5.89
2023-04-09T04:35:04.122Z,5.94
2023-04-09T04:37:51.047Z,5.94
2023-04-09T04:40:36.919Z,5.92
2023-04-09T04:43:22.146Z,5.95
2023-04-09T04:46:07.175Z,5.92
2023-04-09T04:48:52.372Z,5.94
2023-04-09T04:51:37.665Z,5.94
2023-04-09T04:54:22.623Z,5.91
2023-04-09T04:57:07.786Z,5.87
2023-04-09T04:59:52.854Z,5.94
2023-04-09T05:02:38.346Z,5.96
2023-04-09T05:05:23.707Z,5.94
2023-04-09T05:08:09.078Z,5.95
2023-04-09T05:10:56.166Z,5.97
2023-04-09T05:13:41.459Z,5.88
2023-04-09T05:16:27.104Z,5.97
2023-04-09T05:19:12.313Z,5.96
2023-04-09T05:21:57.590Z,5.85
2023-04-09T05:24:42.548Z,5.92
2023-04-09T05:27:28.200Z,5.94
2023-04-09T05:30:13.471Z,5.92
2023-04-09T05:32:58.868Z,5.93
2023-04-09T05:35:43.956Z,5.93
2023-04-09T05:38:29.053Z,5.93
2023-04-09T05:41:14.183Z,5.93
2023-04-09T05:44:00.791Z,5.96
2023-04-09T05:46:46.385Z,5.90
2023-04-09T05:49:31.486Z,5.93
2023-04-09T05:52:19.941Z,5.96
2023-04-09T05:55:06.621Z,5.96
2023-04-09T05:57:54.723Z,5.96
2023-04-09T06:00:39.962Z,5.82
2023-04-09T06:03:25.602Z,5.91
2023-04-09T06:06:11.021Z,5.90
2023-04-09T06:08:56.435Z,5.84
2023-04-09T06:11:41.681Z,5.91
2023-04-09T06:14:26.767Z,5.87
2023-04-09T06:17:11.694Z,5.85
2023-04-09T06:19:56.543Z,5.95
2023-04-09T06:22:41.890Z,5.95
2023-04-09T06:25:27.136Z,5.92
2023-04-09T06:28:12.372Z,5.86
2023-04-09T06:30:58.399Z,5.89
2023-04-09T06:33:43.324Z,5.86
2023-04-09T06:36:28.436Z,5.82
2023-04-09T06:39:13.584Z,5.85
2023-04-09T06:41:58.921Z,5.87
2023-04-09T06:44:44.063Z,5.86
2023-04-09T06:47:29.037Z,5.83
2023-04-09T06:50:13.965Z,5.83
2023-04-09T06:52:59.109Z,5.87
2023-04-09T06:55:44.310Z,5.90
2023-04-09T06:58:29.624Z,5.94
2023-04-09T07:01:17.205Z,6.01
2023-04-09T07:04:02.573Z,6.02
2023-04-09T07:06:47.698Z,6.03
2023-04-09T07:09:32.965Z,6.11
2023-04-09T07:12:28.226Z,6.14
2023-04-09T07:15:14.689Z,6.15
2023-04-09T07:17:59.812Z,6.16
2023-04-09T07:20:45.239Z,6.21
2023-04-09T07:23:30.555Z,6.26
2023-04-09T07:26:15.556Z,6.25
2023-04-09T07:29:00.703Z,6.32
2023-04-09T07:31:46.436Z,6.43
2023-04-09T07:34:32.010Z,6.36
2023-04-09T07:37:17.232Z,6.34
2023-04-09T07:40:04.037Z,6.37
2023-04-09T07:42:49.765Z,6.37
2023-04-09T07:45:34.804Z,6.47
2023-04-09T07:48:19.651Z,6.54
2023-04-09T07:51:06.163Z,6.58
2023-04-09T07:53:51.528Z,6.63
2023-04-09T07:56:37.092Z,6.62
2023-04-09T07:59:22.287Z,6.69
2023-04-09T08:02:07.929Z,6.84
2023-04-09T08:04:53.337Z,7.04
2023-04-09T08:07:38.783Z,6.98
2023-04-09T08:10:24.104Z,6.91
2023-04-09T08:13:10.195Z,6.98
2023-04-09T08:15:57.287Z,7.01
2023-04-09T08:18:42.630Z,7.07
2023-04-09T08:21:27.830Z,7.13
2023-04-09T08:24:12.878Z,7.20
2023-04-09T08:26:57.903Z,7.25
2023-04-09T08:29:42.890Z,7.55
2023-04-09T08:32:28.236Z,7.65
2023-04-09T08:35:13.327Z,7.67
2023-04-09T08:37:59.366Z,7.76
2023-04-09T08:40:44.505Z,7.73
2023-04-09T08:43:47.228Z,7.90
2023-04-09T08:46:37.258Z,7.95
2023-04-09T08:49:22.463Z,7.92
2023-04-09T08:52:08.154Z,8.05
2023-04-09T08:54:53.107Z,8.20
2023-04-09T08:57:39.268Z,8.29
2023-04-09T09:00:24.397Z,8.42
2023-04-09T09:03:13.109Z,8.48
2023-04-09T09:05:58.935Z,8.51
2023-04-09T09:08:43.846Z,8.65
2023-04-09T09:11:30.377Z,8.77
2023-04-09T09:14:18.469Z,8.84
2023-04-09T09:17:05.256Z,9.09
2023-04-09T09:19:50.319Z,9.24
2023-04-09T09:22:54.882Z,9.58
2023-04-09T09:25:42.023Z,9.89
2023-04-09T09:28:35.493Z,10.34
2023-04-09T09:31:22.557Z,10.50
2023-04-09T09:34:11.371Z,10.48
2023-04-09T09:36:56.754Z,10.62
2023-04-09T09:39:45.058Z,10.75
2023-04-09T09:42:30.393Z,10.68
2023-04-09T09:45:19.352Z,10.87
2023-04-09T09:48:10.594Z,10.85
2023-04-09T09:50:56.113Z,10.91
2023-04-09T09:53:46.196Z,11.09
2023-04-09T09:56:38.545Z,11.28
2023-04-09T09:59:30.666Z,11.43
2023-04-09T10:02:20.609Z,11.50
2023-04-09T10:05:06.357Z,11.60
2023-04-09T10:07:52.019Z,11.79
2023-04-09T10:10:42.032Z,11.98
2023-04-09T10:13:33.994Z,12.15
2023-04-09T10:16:23.206Z,12.45
2023-04-09T10:19:13.876Z,12.77
2023-04-09T10:22:07.958Z,12.90
2023-04-09T10:24:53.083Z,13.05
2023-04-09T10:27:38.321Z,13.31
2023-04-09T10:30:36.778Z,13.59
2023-04-09T10:33:27.842Z,13.73
2023-04-09T10:36:13.364Z,13.93
2023-04-09T10:38:58.768Z,13.93
2023-04-09T10:41:46.280Z,14.15
2023-04-09T10:44:32.139Z,14.13
2023-04-09T10:47:33.803Z,14.27
2023-04-09T10:50:20.357Z,14.33
2023-04-09T10:53:06.367Z,14.41
2023-04-09T10:55:53.007Z,14.30
2023-04-09T10:58:38.248Z,14.36
2023-04-09T11:01:24.237Z,14.67
2023-04-09T11:04:21.113Z,14.79
2023-04-09T11:07:06.776Z,14.83
2023-04-09T11:09:51.633Z,14.83
2023-04-09T11:12:36.762Z,14.83
2023-04-09T11:15:22.159Z,14.50
2023-04-09T11:18:07.196Z,14.67
2023-04-09T11:21:00.463Z,14.76
2023-04-09T11:23:52.449Z,14.99
2023-04-09T11:26:37.638Z,15.30
2023-04-09T11:29:23.048Z,15.54
2023-04-09T11:32:08.045Z,15.60
2023-04-09T11:34:53.228Z,15.64
2023-04-09T11:37:38.348Z,15.84
2023-04-09T11:40:29.086Z,15.99
2023-04-09T11:43:16.669Z,16.35
2023-04-09T11:46:02.158Z,16.51
2023-04-09T11:48:48.697Z,16.49
2023-04-09T11:51:35.535Z,16.78
2023-04-09T11:54:20.831Z,16.93
2023-04-09T11:57:06.794Z,17.20
2023-04-09T11:59:51.891Z,16.74
2023-04-09T12:02:42.476Z,16.75
2023-04-09T12:05:30.088Z,16.94
2023-04-09T12:08:16.984Z,16.96
2023-04-09T12:11:12.631Z,17.25
2023-04-09T12:14:05.161Z,17.19
2023-04-09T12:16:53.422Z,17.38
2023-04-09T12:19:38.387Z,17.64
2023-04-09T12:22:23.381Z,17.48
2023-04-09T12:25:08.721Z,17.84
2023-04-09T12:27:56.089Z,17.56
2023-04-09T12:30:41.500Z,16.95
2023-04-09T12:33:26.401Z,16.85
2023-04-09T12:36:11.692Z,17.52
2023-04-09T12:38:57.032Z,17.94
2023-04-09T12:41:42.316Z,18.07
2023-04-09T12:44:27.661Z,18.01
2023-04-09T12:47:13.437Z,18.34
2023-04-09T12:49:58.670Z,18.43
2023-04-09T12:52:44.586Z,18.39
2023-04-09T12:55:29.701Z,18.81
2023-04-09T12:58:15.354Z,18.93
2023-04-09T13:01:01.364Z,19.07
2023-04-09T13:03:46.669Z,19.12
2023-04-09T13:06:32.671Z,19.24
2023-04-09T13:09:17.807Z,19.35
2023-04-09T13:12:03.184Z,19.43
2023-04-09T13:14:48.706Z,19.56
2023-04-09T13:17:33.986Z,19.67
2023-04-09T13:20:19.575Z,19.63
2023-04-09T13:23:04.764Z,19.84
2023-04-09T13:25:50.066Z,19.99
2023-04-09T13:28:35.257Z,20.13
2023-04-09T13:31:20.250Z,20.18
2023-04-09T13:34:06.507Z,20.48
2023-04-09T13:36:51.855Z,20.63
2023-04-09T13:39:37.019Z,20.78
2023-04-09T13:42:22.108Z,20.97
2023-04-09T13:45:07.634Z,20.78
2023-04-09T13:47:52.766Z,20.78
2023-04-09T13:50:38.289Z,20.94
2023-04-09T13:53:25.135Z,20.97
2023-04-09T13:56:10.243Z,21.21
2023-04-09T13:58:55.616Z,21.25
2023-04-09T14:01:40.912Z,21.08
2023-04-09T14:04:26.701Z,21.03
2023-04-09T14:07:11.987Z,21.23
2023-04-09T14:09:57.108Z,21.59
2023-04-09T14:12:42.432Z,21.25
2023-04-09T14:15:27.379Z,21.26
2023-04-09T14:18:12.534Z,21.07
2023-04-09T14:20:58.730Z,21.05
2023-04-09T14:23:43.877Z,21.27
2023-04-09T14:26:29.194Z,21.00
2023-04-09T14:29:14.542Z,20.86
2023-04-09T14:32:00.854Z,21.02
2023-04-09T14:34:46.041Z,21.48
2023-04-09T14:37:31.752Z,21.61
2023-04-09T14:40:16.773Z,21.63
2023-04-09T14:43:02.052Z,21.84
2023-04-09T14:45:47.441Z,21.92
2023-04-09T14:48:32.393Z,21.98
2023-04-09T14:51:17.759Z,21.65
2023-04-09T14:54:02.962Z,21.34
2023-04-09T14:56:48.174Z,21.08
2023-04-09T14:59:33.133Z,21.04
2023-04-09T15:02:18.624Z,21.05
2023-04-09T15:05:04.756Z,21.08
2023-04-09T15:07:50.127Z,21.24
2023-04-09T15:10:37.055Z,21.05
2023-04-09T15:13:22.271Z,21.23
2023-04-09T15:16:07.670Z,21.30
2023-04-09T15:18:55.891Z,21.03
2023-04-09T15:21:41.625Z,20.91
2023-04-09T15:24:26.706Z,20.70
2023-04-09T15:27:11.930Z,20.71
2023-04-09T15:29:56.974Z,20.70
2023-04-09T15:32:42.248Z,20.57
2023-04-09T15:35:29.326Z,20.38
2023-04-09T15:38:14.490Z,20.02
2023-04-09T15:40:59.872Z,19.88
2023-04-09T15:43:45.311Z,19.50
2023-04-09T15:46:31.652Z,19.10
2023-04-09T15:49:16.873Z,18.99
2023-04-09T15:52:02.203Z,18.64
2023-04-09T15:54:47.335Z,18.53
2023-04-09T15:57:32.295Z,18.50
2023-04-09T16:00:17.773Z,18.10
2023-04-09T16:03:02.853Z,17.93
2023-04-09T16:05:48.558Z,17.79
2023-04-09T16:08:34.609Z,17.53
2023-04-09T16:11:19.911Z,17.43
2023-04-09T16:14:05.273Z,17.35
2023-04-09T16:16:51.299Z,17.18
2023-04-09T16:19:36.458Z,16.91
2023-04-09T16:22:21.630Z,16.76
2023-04-09T16:25:07.706Z,16.54
2023-04-09T16:27:53.083Z,16.48
2023-04-09T16:30:38.270Z,16.51
2023-04-09T16:33:23.312Z,16.40
2023-04-09T16:36:09.963Z,16.40
2023-04-09T16:38:55.353Z,16.35
2023-04-09T16:41:40.418Z,16.28
2023-04-09T16:44:25.905Z,16.03
2023-04-09T16:47:11.020Z,16.03
2023-04-09T16:49:56.352Z,15.91
2023-04-09T16:52:43.244Z,15.96
2023-04-09T16:55:28.417Z,15.99
2023-04-09T16:58:13.774Z,15.87
2023-04-09T17:00:59.226Z,15.72
2023-04-09T17:03:44.205Z,15.55
2023-04-09T17:06:29.443Z,15.47
2023-04-09T17:09:14.742Z,15.38
2023-04-09T17:11:59.891Z,15.36
2023-04-09T17:14:45.327Z,15.24
2023-04-09T17:17:30.932Z,15.16
2023-04-09T17:20:17.003Z,15.15
2023-04-09T17:23:02.217Z,15.04
2023-04-09T17:25:47.566Z,14.98
2023-04-09T17:28:32.936Z,14.92
2023-04-09T17:31:18.859Z,14.86
2023-04-09T17:34:04.974Z,14.80
2023-04-09T17:36:56.289Z,14.74
2023-04-09T17:39:41.579Z,14.74
2023-04-09T17:42:26.708Z,14.65
2023-04-09T17:45:12.381Z,14.39
2023-04-09T17:47:57.595Z,14.43
2023-04-09T17:50:42.739Z,14.34
2023-04-09T17:53:27.652Z,14.29
2023-04-09T17:56:16.990Z,14.19
2023-04-09T17:59:02.261Z,14.08
2023-04-09T18:01:47.527Z,14.01
2023-04-09T18:04:35.109Z,13.89
2023-04-09T18:07:21.318Z,13.83
2023-04-09T18:10:06.870Z,13.75
2023-04-09T18:12:51.897Z,13.80
2023-04-09T18:15:37.319Z,13.91
2023-04-09T18:18:22.693Z,14.02
2023-04-09T18:21:07.865Z,14.06
2023-04-09T18:23:53.065Z,13.95
2023-04-09T18:26:38.154Z,13.66
2023-04-09T18:29:23.182Z,13.54
2023-04-09T18:32:08.016Z,13.36
2023-04-09T18:34:53.239Z,13.33
2023-04-09T18:37:41.749Z,13.23
2023-04-09T18:40:27.010Z,13.16
2023-04-09T18:43:12.462Z,13.09
2023-04-09T18:45:59.191Z,13.07
2023-04-09T18:48:44.242Z,13.05
2023-04-09T18:51:30.688Z,12.99
2023-04-09T18:54:16.130Z,12.93
2023-04-09T18:57:04.136Z,12.85
2023-04-09T18:59:49.433Z,12.82
2023-04-09T19:02:34.634Z,12.79
2023-04-09T19:05:19.585Z,12.73
2023-04-09T19:08:07.868Z,12.68
2023-04-09T19:10:53.617Z,12.65
2023-04-09T19:13:39.262Z,12.64
2023-04-09T19:16:24.326Z,12.57
2023-04-09T19:19:10.865Z,12.57
2023-04-09T19:21:56.176Z,12.56
2023-04-09T19:24:44.444Z,12.49
2023-04-09T19:27:29.589Z,12.41
2023-04-09T19:30:14.727Z,12.36
2023-04-09T19:32:59.869Z,12.36
2023-04-09T19:35:48.414Z,12.29
2023-04-09T19:38:33.898Z,12.26
2023-04-09T19:41:19.092Z,12.21
2023-04-09T19:44:07.288Z,12.25
2023-04-09T19:46:52.411Z,12.18
2023-04-09T19:49:38.203Z,12.10
2023-04-09T19:52:23.422Z,12.10
2023-04-09T19:55:09.186Z,12.08
2023-04-09T19:57:54.358Z,12.05
2023-04-09T20:00:39.451Z,12.01
2023-04-09T20:03:24.405Z,11.98
2023-04-09T20:06:10.408Z,11.95
2023-04-09T20:08:55.919Z,11.94
2023-04-09T20:11:42.101Z,11.89
2023-04-09T20:14:27.254Z,11.89
2023-04-09T20:17:13.517Z,11.84
2023-04-09T20:19:58.428Z,11.88
2023-04-09T20:22:47.327Z,11.85
2023-04-09T20:25:35.003Z,11.79
2023-04-09T20:28:20.127Z,11.72
2023-04-09T20:31:06.062Z,11.67
2023-04-09T20:33:50.830Z,11.67
2023-04-09T20:36:37.630Z,11.64
2023-04-09T20:39:26.616Z,11.57
2023-04-09T20:42:11.815Z,11.57
2023-04-09T20:44:58.253Z,11.53
2023-04-09T20:47:44.847Z,11.46
2023-04-09T20:50:30.974Z,11.47
2023-04-09T20:53:16.310Z,11.50
2023-04-09T20:56:02.178Z,11.45
2023-04-09T20:58:47.385Z,11.41
2023-04-09T21:01:33.406Z,11.37
2023-04-09T21:04:19.488Z,11.28
2023-04-09T21:07:04.871Z,11.23
2023-04-09T21:09:49.826Z,11.18
2023-04-09T21:12:34.815Z,11.10
2023-04-09T21:15:20.314Z,10.97
2023-04-09T21:18:05.768Z,10.97
2023-04-09T21:20:51.678Z,10.97
2023-04-09T21:23:36.774Z,10.92
2023-04-09T21:26:22.025Z,10.97
2023-04-09T21:29:07.114Z,10.90
2023-04-09T21:31:52.346Z,10.86
2023-04-09T21:34:39.825Z,10.85
2023-04-09T21:37:25.187Z,10.90
2023-04-09T21:40:10.690Z,10.91
2023-04-09T21:42:57.058Z,10.88
2023-04-09T21:45:42.284Z,10.81
2023-04-09T21:48:30.589Z,10.84
2023-04-09T21:51:16.094Z,10.83
2023-04-09T21:54:11.463Z,10.75
2023-04-09T21:56:56.932Z,10.65
2023-04-09T21:59:42.331Z,10.62
2023-04-09T22:02:28.114Z,10.69
2023-04-09T22:05:13.504Z,10.69
2023-04-09T22:07:58.753Z,10.65
2023-04-09T22:10:45.678Z,10.69
2023-04-09T22:13:30.587Z,10.66
2023-04-09T22:16:17.102Z,10.61
2023-04-09T22:19:02.479Z,10.63
2023-04-09T22:21:50.546Z,10.64
2023-04-09T22:24:35.610Z,10.68
2023-04-09T22:27:20.620Z,10.67
2023-04-09T22:30:06.359Z,10.66
2023-04-09T22:32:51.888Z,10.58
2023-04-09T22:35:37.105Z,10.63
2023-04-09T22:38:22.736Z,10.60
2023-04-09T22:41:07.659Z,10.56
2023-04-09T22:43:54.032Z,10.57
2023-04-09T22:46:38.990Z,10.47
2023-04-09T22:49:24.252Z,10.45
2023-04-09T22:52:09.645Z,10.46
2023-04-09T22:54:54.831Z,10.46
2023-04-09T22:57:42.752Z,10.44
2023-04-09T23:00:27.738Z,10.44
2023-04-09T23:03:13.230Z,10.42
2023-04-09T23:05:58.500Z,10.39
2023-04-09T23:08:44.353Z,10.40
2023-04-09T23:11:30.528Z,10.33
2023-04-09T23:14:15.667Z,10.27
2023-04-09T23:17:01.041Z,10.28
2023-04-09T23:19:46.182Z,10.26
2023-04-09T23:22:31.157Z,10.24
2023-04-09T23:25:16.566Z,10.21
2023-04-09T23:28:01.847Z,10.22
2023-04-09T23:30:47.023Z,10.20
2023-04-09T23:33:32.633Z,10.19
2023-04-09T23:36:17.869Z,10.18
2023-04-09T23:39:03.406Z,10.15
2023-04-09T23:41:48.534Z,10.14
2023-04-09T23:44:34.005Z,10.15
2023-04-09T23:47:19.080Z,10.07
2023-04-09T23:50:06.657Z,10.03
2023-04-09T23:52:51.996Z,10.07
2023-04-09T23:55:41.445Z,10.14
2023-04-09T23:58:26.554Z,10.16
